Time,TemperatureF,DewpointF,PressureIn,WindDirection,WindDirectionDegrees,WindSpeedMPH,WindSpeedGustMPH,Humidity,HourlyPrecipIn,Conditions,Clouds,dailyrainin,SoftwareType,DateUTC
2013-01-11 00:15:00,46.0,38.2,30.41,NE,40,0.0,1.0,74,0.00,CLR,,0.00,WeatherDisplay:10.37,2013-01-11 05:15:00,
2013-01-11 00:30:00,46.4,38.9,30.41,NE,40,0.0,1.0,75,0.00,BKN,,0.00,WeatherDisplay:10.37,2013-01-11 05:30:00,
2013-01-11 00:45:00,46.4,38.9,30.41,NE,40,0.0,2.0,75,0.00,BKN,,0.00,WeatherDisplay:10.37,2013-01-11 05:45:00,
2013-01-11 01:00:00,47.1,39.6,30.40,NE,46,0.0,4.0,75,0.00,BKN,,0.00,WeatherDisplay:10.37,2013-01-11 06:00:00,
2013-01-11 01:15:00,47.8,39.9,30.39,NE,46,0.0,2.0,74,0.00,BKN,,0.00,WeatherDisplay:10.37,2013-01-11 06:15:00,
2013-01-11 01:30:00,48.1,39.9,30.39,NE,46,1.0,3.0,73,0.00,OVC,,0.00,WeatherDisplay:10.37,2013-01-11 06:30:00,
2013-01-11 01:45:00,48.4,40.8,30.40,NE,44,0.0,3.0,75,0.00,OVC,,0.00,WeatherDisplay:10.37,2013-01-11 06:45:00,
2013-01-11 02:00:00,47.8,41.6,30.40,NE,43,0.0,2.0,79,0.00,OVC,,0.00,WeatherDisplay:10.37,2013-01-11 07:00:00,
2013-01-11 02:15:00,47.2,41.7,30.40,NE,43,0.0,3.0,81,0.00,OVC,,0.00,WeatherDisplay:10.37,2013-01-11 07:15:00,
2013-01-11 02:30:00,46.8,42.2,30.39,NE,43,1.0,3.0,84,0.01,-RA,,0.01,WeatherDisplay:10.37,2013-01-11 07:30:00,
2013-01-11 02:45:00,46.3,42.0,30.39,ENE,64,0.0,6.0,85,0.00,-RA,,0.01,WeatherDisplay:10.37,2013-01-11 07:45:00,
2013-01-11 03:00:00,46.2,42.2,30.39,ENE,65,1.0,6.0,86,0.00,-RA,,0.01,WeatherDisplay:10.37,2013-01-11 08:00:00,
2013-01-11 03:15:00,46.1,42.1,30.39,ENE,71,2.0,4.0,86,0.00,-RA,,0.01,WeatherDisplay:10.37,2013-01-11 08:15:00,
2013-01-11 03:30:00,45.7,41.8,30.38,East,81,1.0,5.0,86,0.00,-RA,,0.01,WeatherDisplay:10.37,2013-01-11 08:30:00,
2013-01-11 03:45:00,45.2,41.6,30.37,East,83,1.0,6.0,87,0.00,-RA,,0.01,WeatherDisplay:10.37,2013-01-11 08:45:00,
2013-01-11 04:00:00,44.9,41.6,30.37,ENE,61,0.0,5.0,88,0.01,-RA,,0.02,WeatherDisplay:10.37,2013-01-11 09:00:00,
2013-01-11 04:15:00,44.5,41.5,30.36,NE,35,0.0,4.0,89,0.01,-RA,,0.03,WeatherDisplay:10.37,2013-01-11 09:15:00,
2013-01-11 04:30:00,44.3,41.6,30.34,NE,46,1.0,5.0,90,0.00,-RA,,0.03,WeatherDisplay:10.37,2013-01-11 09:30:00,
2013-01-11 04:45:00,44.1,41.4,30.35,ENE,57,1.0,5.0,90,0.00,-RA,,0.03,WeatherDisplay:10.37,2013-01-11 09:45:00,
2013-01-11 05:00:00,44.0,41.5,30.34,NE,56,0.0,4.0,91,0.00,-RA,,0.03,WeatherDisplay:10.37,2013-01-11 10:00:00,
2013-01-11 05:15:00,43.9,41.4,30.35,NE,56,1.0,3.0,91,0.00,-RA,,0.03,WeatherDisplay:10.37,2013-01-11 10:15:00,
2013-01-11 05:30:00,43.8,41.3,30.36,NE,55,0.0,4.0,91,0.00,OVC,,0.03,WeatherDisplay:10.37,2013-01-11 10:30:00,
2013-01-11 05:45:00,43.7,41.2,30.37,NE,55,0.0,2.0,91,0.00,OVC,,0.03,WeatherDisplay:10.37,2013-01-11 10:45:00,
2013-01-11 06:00:00,43.5,41.0,30.37,NE,56,0.0,4.0,91,0.00,OVC,,0.03,WeatherDisplay:10.37,2013-01-11 11:00:00,
2013-01-11 06:15:00,43.3,40.8,30.36,NE,53,1.0,6.0,91,0.00,OVC,,0.03,WeatherDisplay:10.37,2013-01-11 11:15:00,
2013-01-11 06:30:00,43.0,40.8,30.36,East,81,0.0,6.0,92,0.00,-RA,,0.03,WeatherDisplay:10.37,2013-01-11 11:30:00,
2013-01-11 06:45:00,42.9,40.7,30.36,ENE,62,2.0,6.0,92,0.01,-RA,,0.04,WeatherDisplay:10.37,2013-01-11 11:45:00,
2013-01-11 07:00:00,42.7,40.5,30.35,ENE,72,1.0,8.0,92,0.00,-RA,,0.04,WeatherDisplay:10.37,2013-01-11 12:00:00,
2013-01-11 07:15:00,42.4,40.2,30.35,ENE,59,5.0,7.0,92,0.00,-RA,,0.04,WeatherDisplay:10.37,2013-01-11 12:15:00,
2013-01-11 07:30:00,42.2,40.0,30.35,East,90,3.0,8.0,92,0.00,OVC,,0.04,WeatherDisplay:10.37,2013-01-11 12:30:00,
2013-01-11 07:45:00,42.0,39.8,30.36,ENE,70,3.0,8.0,92,0.00,OVC,,0.04,WeatherDisplay:10.37,2013-01-11 12:45:00,
2013-01-11 08:00:00,41.8,39.9,30.37,ENE,74,1.0,9.0,93,0.00,-RA,,0.04,WeatherDisplay:10.37,2013-01-11 13:00:00,
2013-01-11 08:15:00,41.8,39.9,30.37,NE,48,2.0,6.0,93,0.00,-RA,,0.04,WeatherDisplay:10.37,2013-01-11 13:15:00,
2013-01-11 08:30:00,41.7,39.8,30.38,NNE,21,1.0,7.0,93,0.00,OVC,,0.04,WeatherDisplay:10.37,2013-01-11 13:30:00,
2013-01-11 08:45:00,41.7,39.8,30.37,ENE,59,1.0,6.0,93,0.00,OVC,,0.04,WeatherDisplay:10.37,2013-01-11 13:45:00,
2013-01-11 09:00:00,41.7,39.8,30.36,East,79,2.0,7.0,93,0.00,OVC,,0.04,WeatherDisplay:10.37,2013-01-11 14:00:00,
2013-01-11 09:15:00,41.5,39.6,30.35,East,88,3.0,9.0,93,0.00,OVC,,0.04,WeatherDisplay:10.37,2013-01-11 14:15:00,
2013-01-11 09:30:00,41.1,39.0,30.36,NNE,22,1.0,12.0,92,0.00,OVC,,0.04,WeatherDisplay:10.37,2013-01-11 14:30:00,
2013-01-11 09:45:00,40.9,38.8,30.36,ENE,71,3.0,7.0,92,0.01,RA,,0.05,WeatherDisplay:10.37,2013-01-11 14:45:00,
2013-01-11 10:00:00,40.9,38.8,30.36,North,3,1.0,4.0,92,0.00,OVC,,0.05,WeatherDisplay:10.37,2013-01-11 15:00:00,
2013-01-11 10:15:00,40.9,38.8,30.34,NE,55,1.0,5.0,92,0.01,RA,,0.06,WeatherDisplay:10.37,2013-01-11 15:15:00,
2013-01-11 10:30:00,40.8,38.7,30.35,NE,54,2.0,7.0,92,0.01,RA,,0.07,WeatherDisplay:10.37,2013-01-11 15:30:00,
2013-01-11 10:45:00,40.6,38.5,30.34,NNE,19,2.0,5.0,92,0.00,OVC,,0.07,WeatherDisplay:10.37,2013-01-11 15:45:00,
2013-01-11 11:00:00,40.7,38.8,30.33,NNE,32,0.0,5.0,93,0.00,OVC,,0.07,WeatherDisplay:10.37,2013-01-11 16:00:00,
2013-01-11 11:15:00,40.7,38.6,30.33,NNE,30,1.0,4.0,92,0.00,OVC,,0.07,WeatherDisplay:10.37,2013-01-11 16:15:00,
2013-01-11 11:30:00,40.7,38.8,30.32,NNE,18,1.0,4.0,93,0.00,OVC,,0.07,WeatherDisplay:10.37,2013-01-11 16:30:00,
2013-01-11 11:45:00,40.8,38.9,30.31,North,5,0.0,6.0,93,0.00,OVC,,0.07,WeatherDisplay:10.37,2013-01-11 16:45:00,
2013-01-11 12:00:00,40.8,38.9,30.31,NNE,22,0.0,6.0,93,0.00,OVC,,0.07,WeatherDisplay:10.37,2013-01-11 17:00:00,
2013-01-11 12:15:00,41.0,39.1,30.29,NNE,25,2.0,4.0,93,0.00,OVC,,0.07,WeatherDisplay:10.37,2013-01-11 17:15:00,
2013-01-11 12:30:00,41.1,39.5,30.28,NE,34,0.0,4.0,94,0.00,-RA,,0.07,WeatherDisplay:10.37,2013-01-11 17:30:00,
2013-01-11 12:45:00,41.4,39.8,30.27,NE,35,0.0,3.0,94,0.00,-RA,,0.07,WeatherDisplay:10.37,2013-01-11 17:45:00,
2013-01-11 13:00:00,41.5,39.6,30.26,NNE,33,1.0,4.0,93,0.00,OVC,,0.07,WeatherDisplay:10.37,2013-01-11 18:00:00,
2013-01-11 13:15:00,41.5,39.9,30.25,ENE,62,1.0,4.0,94,0.00,OVC,,0.07,WeatherDisplay:10.37,2013-01-11 18:15:00,
2013-01-11 13:30:00,41.7,40.1,30.25,East,80,0.0,5.0,94,0.00,OVC,,0.07,WeatherDisplay:10.37,2013-01-11 18:30:00,
2013-01-11 13:45:00,41.6,39.7,30.25,NNW,345,1.0,5.0,93,0.00,OVC,,0.07,WeatherDisplay:10.37,2013-01-11 18:45:00,
2013-01-11 14:00:00,41.7,39.8,30.24,NNW,347,0.0,2.0,93,0.00,OVC,,0.07,WeatherDisplay:10.37,2013-01-11 19:00:00,
2013-01-11 14:15:00,41.9,40.3,30.24,NNW,347,1.0,2.0,94,0.00,OVC,,0.07,WeatherDisplay:10.37,2013-01-11 19:15:00,
2013-01-11 14:30:00,42.1,40.5,30.24,NNW,347,1.0,3.0,94,0.00,OVC,,0.07,WeatherDisplay:10.37,2013-01-11 19:30:00,
2013-01-11 14:45:00,42.1,40.5,30.24,NNW,334,1.0,6.0,94,0.00,OVC,,0.07,WeatherDisplay:10.37,2013-01-11 19:45:00,
2013-01-11 15:00:00,42.0,40.1,30.23,NNW,329,0.0,4.0,93,0.00,,,0.07,WeatherDisplay:10.37,2013-01-11 20:00:00,
2013-01-11 15:15:00,42.2,40.6,30.23,NNW,329,0.0,2.0,94,0.00,,,0.07,WeatherDisplay:10.37,2013-01-11 20:15:00,
2013-01-11 15:30:00,42.4,40.8,30.22,NNW,329,0.0,2.0,94,0.00,,,0.07,WeatherDisplay:10.37,2013-01-11 20:30:00,
2013-01-11 15:45:00,42.5,40.9,30.22,NNW,329,0.0,2.0,94,0.00,,,0.07,WeatherDisplay:10.37,2013-01-11 20:45:00,
2013-01-11 16:00:00,42.4,40.8,30.23,NNW,331,3.0,5.0,94,0.00,,,0.07,WeatherDisplay:10.37,2013-01-11 21:00:00,
2013-01-11 16:15:00,41.9,40.3,30.22,North,352,0.0,6.0,94,0.00,,,0.07,WeatherDisplay:10.37,2013-01-11 21:15:00,
2013-01-11 16:30:00,41.9,40.3,30.23,NNW,327,0.0,4.0,94,0.00,,,0.07,WeatherDisplay:10.37,2013-01-11 21:30:00,
2013-01-11 16:45:00,41.7,40.1,30.23,NNW,327,0.0,4.0,94,0.00,,,0.07,WeatherDisplay:10.37,2013-01-11 21:45:00,
2013-01-11 17:00:00,41.5,39.9,30.22,NNW,329,0.0,4.0,94,0.00,,,0.07,WeatherDisplay:10.37,2013-01-11 22:00:00,
2013-01-11 17:15:00,41.5,39.9,30.23,NNW,329,1.0,3.0,94,0.00,,,0.07,WeatherDisplay:10.37,2013-01-11 22:15:00,
2013-01-11 17:30:00,41.5,39.9,30.21,NNW,329,0.0,2.0,94,0.00,,,0.07,WeatherDisplay:10.37,2013-01-11 22:30:00,
2013-01-11 17:45:00,41.4,39.8,30.21,NNW,329,0.0,0.0,94,0.00,,,0.07,WeatherDisplay:10.37,2013-01-11 22:45:00,
2013-01-11 18:00:00,41.4,39.8,30.21,NNW,329,0.0,0.0,94,0.00,OVC,,0.07,WeatherDisplay:10.37,2013-01-11 23:00:00,
2013-01-11 18:15:00,41.4,39.8,30.21,NNW,329,0.0,1.0,94,0.00,OVC,,0.07,WeatherDisplay:10.37,2013-01-11 23:15:00,
2013-01-11 18:30:00,41.4,39.8,30.21,NNW,329,0.0,2.0,94,0.00,OVC,,0.07,WeatherDisplay:10.37,2013-01-11 23:30:00,
2013-01-11 18:45:00,41.4,39.8,30.22,NNW,329,0.0,1.0,94,0.01,RA,,0.08,WeatherDisplay:10.37,2013-01-11 23:45:00,
2013-01-11 19:00:00,41.5,39.9,30.22,NNW,329,0.0,1.0,94,0.00,,,0.08,WeatherDisplay:10.37,2013-01-12 00:00:00,
2013-01-11 19:15:00,41.6,40.0,30.22,NNW,329,0.0,1.0,94,0.00,,,0.08,WeatherDisplay:10.37,2013-01-12 00:15:00,
2013-01-11 19:30:00,41.7,40.1,30.22,NNW,329,0.0,0.0,94,0.00,,,0.08,WeatherDisplay:10.37,2013-01-12 00:30:00,
2013-01-11 19:45:00,41.7,40.1,30.23,NNW,329,0.0,1.0,94,0.00,,,0.08,WeatherDisplay:10.37,2013-01-12 00:45:00,
2013-01-11 20:00:00,41.7,40.1,30.23,NNW,329,0.0,1.0,94,0.00,,,0.08,WeatherDisplay:10.37,2013-01-12 01:00:00,
2013-01-11 20:15:00,41.8,40.2,30.22,NNW,329,0.0,1.0,94,0.00,,,0.08,WeatherDisplay:10.37,2013-01-12 01:15:00,
2013-01-11 20:30:00,41.9,40.3,30.22,NNW,329,0.0,0.0,94,0.00,,,0.08,WeatherDisplay:10.37,2013-01-12 01:30:00,
2013-01-11 20:45:00,41.9,40.3,30.21,NNW,329,0.0,1.0,94,0.00,,,0.08,WeatherDisplay:10.37,2013-01-12 01:45:00,
2013-01-11 21:00:00,42.0,40.4,30.21,NNW,329,0.0,1.0,94,0.00,,,0.08,WeatherDisplay:10.37,2013-01-12 02:00:00,
2013-01-11 21:15:00,42.1,40.5,30.20,NNW,329,0.0,1.0,94,0.00,,,0.08,WeatherDisplay:10.37,2013-01-12 02:15:00,
2013-01-11 21:30:00,42.1,40.5,30.20,NNW,329,0.0,2.0,94,0.00,OVC,,0.08,WeatherDisplay:10.37,2013-01-12 02:30:00,
2013-01-11 21:45:00,42.2,40.6,30.20,NNW,329,0.0,0.0,94,0.00,OVC,,0.08,WeatherDisplay:10.37,2013-01-12 02:45:00,
2013-01-11 22:00:00,42.2,40.6,30.20,NNW,329,0.0,1.0,94,0.00,OVC,,0.08,WeatherDisplay:10.37,2013-01-12 03:00:00,
2013-01-11 22:15:00,42.3,40.7,30.20,NNW,329,0.0,1.0,94,0.00,OVC,,0.08,WeatherDisplay:10.37,2013-01-12 03:15:00,
2013-01-11 22:30:00,42.3,40.7,30.20,NNW,329,0.0,3.0,94,0.00,OVC,,0.08,WeatherDisplay:10.37,2013-01-12 03:30:00,
2013-01-11 22:45:00,42.4,40.8,30.20,NNW,329,1.0,2.0,94,0.00,OVC,,0.08,WeatherDisplay:10.37,2013-01-12 03:45:00,
2013-01-11 23:00:00,42.4,40.8,30.20,NNW,329,1.0,2.0,94,0.00,OVC,,0.08,WeatherDisplay:10.37,2013-01-12 04:00:00,
2013-01-11 23:15:00,42.5,40.9,30.20,NNW,329,1.0,3.0,94,0.00,OVC,,0.08,WeatherDisplay:10.37,2013-01-12 04:15:00,
2013-01-11 23:30:00,42.6,41.0,30.19,NNW,329,0.0,2.0,94,0.00,OVC,,0.08,WeatherDisplay:10.37,2013-01-12 04:30:00,
2013-01-11 23:45:00,42.6,41.0,30.20,NNW,329,1.0,1.0,94,0.00,OVC,,0.08,WeatherDisplay:10.37,2013-01-12 04:45:00,